Time;durP1;ratioP1;P1;durP2;ratioP2;P2;SDS_P1;SDS_P2;PMS_P1;PMS_P2;Temp;Humidity;BMP_temperature;BMP_pressure;BME280_temperature;BME280_humidity;BME280_pressure;Samples;Min_cycle;Max_cycle;Signal;HPM_P1;HPM_P2
2021/03/15 00:01:06;;;;;;;1.70;0.90;;;;;;;26.70;38.54;98091.06;5094648;28;20343;-62
2021/03/15 00:03:33;;;;;;;2.97;1.27;;;;;;;26.64;37.87;98092.66;5094433;28;20569;-60
2021/03/15 00:06:00;;;;;;;3.33;1.05;;;;;;;26.57;38.60;98089.91;5094216;28;20268;-60
2021/03/15 00:08:27;;;;;;;2.35;0.80;;;;;;;26.61;38.09;98092.19;5094383;28;20453;-62
2021/03/15 00:10:54;;;;;;;2.50;0.60;;;;;;;26.50;38.08;98094.41;5094450;28;20206;-62
2021/03/15 00:13:20;;;;;;;1.63;0.93;;;;;;;26.47;38.22;98086.75;5094542;28;20525;-63
2021/03/15 00:15:48;;;;;;;2.90;0.82;;;;;;;26.37;38.42;98086.25;5094298;28;20309;-63
2021/03/15 00:18:14;;;;;;;2.55;0.95;;;;;;;26.31;38.92;98084.34;5093938;28;20631;-62
2021/03/15 00:20:40;;;;;;;2.30;0.85;;;;;;;26.32;38.29;98088.69;5093870;28;20350;-64
2021/03/15 00:23:06;;;;;;;2.33;0.98;;;;;;;26.34;38.43;98079.41;5093538;28;20418;-59
2021/03/15 00:25:32;;;;;;;2.35;0.95;;;;;;;26.30;38.81;98077.34;5093385;28;20383;-63
2021/03/15 00:27:59;;;;;;;3.40;1.27;;;;;;;26.34;38.99;98067.88;5094275;28;20304;-63
2021/03/15 00:30:26;;;;;;;1.40;0.73;;;;;;;26.27;38.30;98070.50;5093833;28;20202;-58
2021/03/15 00:32:53;;;;;;;2.97;0.70;;;;;;;26.17;38.44;98072.69;5094509;28;20348;-61
2021/03/15 00:35:20;;;;;;;1.58;0.90;;;;;;;26.07;39.27;98070.34;5093947;28;20209;-63
2021/03/15 00:37:47;;;;;;;1.63;0.85;;;;;;;26.16;39.36;98063.84;5093207;28;20202;-64
2021/03/15 00:40:15;;;;;;;2.60;0.90;;;;;;;26.12;38.67;98067.09;5093855;28;20252;-64
2021/03/15 00:42:42;;;;;;;1.75;0.73;;;;;;;26.11;39.23;98071.59;5093608;28;20545;-64
2021/03/15 00:45:11;;;;;;;2.00;1.00;;;;;;;26.10;39.26;98064.59;5093631;28;20313;-63
2021/03/15 00:47:37;;;;;;;1.52;0.70;;;;;;;26.02;39.06;98056.72;5093362;28;20791;-62
2021/03/15 00:50:07;;;;;;;1.98;1.15;;;;;;;25.92;38.78;98061.53;5093381;28;20344;-62
2021/03/15 00:52:33;;;;;;;2.35;0.80;;;;;;;25.92;38.59;98062.34;5093185;28;20312;-61
2021/03/15 00:54:59;;;;;;;3.33;0.98;;;;;;;25.82;39.79;98049.28;5092900;28;20228;-63
2021/03/15 00:57:25;;;;;;;2.55;0.80;;;;;;;25.84;38.96;98052.59;5092834;28;20222;-62
2021/03/15 00:59:51;;;;;;;2.05;0.95;;;;;;;25.75;39.69;98048.41;5093225;28;20237;-62
2021/03/15 01:02:18;;;;;;;1.20;0.70;;;;;;;25.73;39.37;98049.59;5092999;28;20201;-62
2021/03/15 01:04:44;;;;;;;2.00;0.60;;;;;;;25.64;40.12;98049.72;5092920;28;20680;-63
2021/03/15 01:07:12;;;;;;;1.42;0.65;;;;;;;25.67;39.73;98051.19;5093015;28;20313;-62
2021/03/15 01:09:38;;;;;;;1.35;0.95;;;;;;;25.67;39.46;98044.00;5092708;28;20355;-62
2021/03/15 01:12:05;;;;;;;3.50;0.82;;;;;;;25.61;40.14;98046.59;5092831;28;20237;-63
2021/03/15 01:14:32;;;;;;;2.63;0.70;;;;;;;25.62;39.28;98053.63;5093207;28;20305;-62
2021/03/15 01:16:58;;;;;;;1.63;0.80;;;;;;;25.69;39.61;98051.81;5092912;28;20218;-63
2021/03/15 01:19:26;;;;;;;1.33;0.80;;;;;;;25.59;39.85;98046.78;5092783;28;20206;-59
2021/03/15 01:21:52;;;;;;;2.17;0.80;;;;;;;25.46;39.88;98047.50;5092856;28;20284;-61
2021/03/15 01:24:18;;;;;;;1.75;0.63;;;;;;;25.47;40.52;98054.50;5092983;28;20289;-61
2021/03/15 01:26:44;;;;;;;2.15;0.65;;;;;;;25.56;40.10;98049.03;5092745;28;20266;-63
2021/03/15 01:29:11;;;;;;;2.83;0.70;;;;;;;25.46;39.42;98055.53;5091810;28;20336;-62
2021/03/15 01:31:37;;;;;;;2.00;0.85;;;;;;;25.54;39.91;98053.75;5092312;28;20688;-62
2021/03/15 01:34:04;;;;;;;0.85;0.82;;;;;;;25.52;39.79;98053.94;5092575;28;20289;-63
2021/03/15 01:36:31;;;;;;;1.23;0.77;;;;;;;25.36;39.99;98046.13;5092168;28;20221;-63
2021/03/15 01:38:57;;;;;;;1.75;0.73;;;;;;;25.38;40.51;98044.09;5092778;28;20395;-60
2021/03/15 01:41:23;;;;;;;1.40;0.70;;;;;;;25.33;40.52;98042.00;5092649;28;20260;-63
2021/03/15 01:43:49;;;;;;;1.50;0.60;;;;;;;25.36;39.91;98040.78;5092512;28;20302;-59
2021/03/15 01:46:16;;;;;;;1.90;0.63;;;;;;;25.28;40.66;98034.53;5092533;28;20392;-62
2021/03/15 01:48:42;;;;;;;2.58;0.80;;;;;;;25.30;40.05;98031.66;5092666;28;20281;-62
2021/03/15 01:51:09;;;;;;;1.60;0.50;;;;;;;25.24;39.73;98032.38;5092189;28;20289;-63
2021/03/15 01:53:36;;;;;;;1.23;0.70;;;;;;;25.17;39.74;98028.81;5091986;28;20587;-62
2021/03/15 01:56:02;;;;;;;0.77;0.60;;;;;;;25.12;39.42;98024.84;5092071;28;20613;-59
2021/03/15 01:58:28;;;;;;;2.70;0.70;;;;;;;25.19;39.61;98026.78;5092065;28;20233;-62
2021/03/15 02:00:54;;;;;;;1.05;0.52;;;;;;;25.06;40.17;98020.25;5092287;28;20301;-61
2021/03/15 02:03:20;;;;;;;3.92;0.80;;;;;;;25.08;40.51;98020.91;5092510;28;20296;-64
2021/03/15 02:05:47;;;;;;;1.90;0.85;;;;;;;25.05;40.26;98017.78;5091778;28;20312;-62
2021/03/15 02:08:14;;;;;;;1.90;0.70;;;;;;;25.10;40.44;98005.47;5092050;28;20604;-60
2021/03/15 02:10:41;;;;;;;2.60;1.00;;;;;;;25.04;40.62;97995.53;5092071;28;20222;-62
2021/03/15 02:13:35;;;;;;;2.97;0.90;;;;;;;25.00;39.88;97993.44;5091833;28;20255;-60
2021/03/15 02:16:08;;;;;;;1.00;0.60;;;;;;;24.98;40.63;97977.56;5092135;28;20254;-63
2021/03/15 02:18:45;;;;;;;1.77;0.90;;;;;;;24.95;39.98;97980.63;5092658;28;20269;-62
2021/03/15 02:21:46;;;;;;;1.98;0.80;;;;;;;24.99;39.98;97973.03;5092215;28;20256;-57
2021/03/15 02:24:21;;;;;;;1.95;0.63;;;;;;;24.97;40.56;97972.41;5092197;28;20265;-61
2021/03/15 02:27:13;;;;;;;1.08;0.57;;;;;;;24.90;39.82;97973.16;5092178;28;20316;-62
2021/03/15 02:30:20;;;;;;;0.93;0.70;;;;;;;24.92;40.02;97968.44;5092335;28;20273;-63
2021/03/15 02:33:18;;;;;;;1.33;0.80;;;;;;;24.96;40.02;97958.19;5091842;28;20201;-62
2021/03/15 02:35:47;;;;;;;1.48;0.68;;;;;;;24.93;40.41;97948.72;5091528;28;20300;-63
2021/03/15 02:38:15;;;;;;;0.85;0.60;;;;;;;24.89;40.09;97949.28;5091694;28;20301;-63
2021/03/15 02:40:45;;;;;;;1.55;0.77;;;;;;;24.82;39.66;97953.72;5091026;28;20295;-63
2021/03/15 02:43:16;;;;;;;2.13;0.90;;;;;;;24.92;40.42;97944.38;5090971;28;20681;-60
2021/03/15 02:45:44;;;;;;;2.88;0.70;;;;;;;24.82;39.88;97937.69;5091512;28;20308;-62
2021/03/15 02:48:13;;;;;;;1.25;0.60;;;;;;;24.81;40.18;97934.16;5090988;28;20208;-61
2021/03/15 02:50:41;;;;;;;1.23;0.50;;;;;;;24.82;40.49;97927.81;5091623;28;20589;-62
2021/03/15 02:53:11;;;;;;;1.40;0.93;;;;;;;24.82;40.10;97925.13;5091598;28;20233;-62
2021/03/15 02:55:39;;;;;;;1.95;0.85;;;;;;;24.78;40.44;97921.19;5091453;28;20281;-62
2021/03/15 02:58:07;;;;;;;1.20;0.65;;;;;;;24.82;39.52;97917.13;5091379;28;20296;-63
2021/03/15 03:00:34;;;;;;;1.40;0.70;;;;;;;24.79;40.40;97914.81;5091480;28;20289;-62
2021/03/15 03:03:02;;;;;;;0.82;0.65;;;;;;;24.80;39.46;97913.81;5091431;28;20289;-63
2021/03/15 03:05:32;;;;;;;1.98;0.60;;;;;;;24.73;40.22;97919.09;5090828;28;20229;-63
2021/03/15 03:07:59;;;;;;;3.10;0.77;;;;;;;24.76;40.42;97917.84;5090960;28;20308;-61
2021/03/15 03:10:27;;;;;;;1.70;0.70;;;;;;;24.66;40.31;97906.66;5091220;28;20251;-63
2021/03/15 03:12:55;;;;;;;1.90;0.52;;;;;;;24.61;40.39;97899.19;5091310;28;20342;-64
2021/03/15 03:15:24;;;;;;;1.15;0.50;;;;;;;24.68;39.62;97900.09;5090897;28;20340;-63
2021/03/15 03:17:52;;;;;;;1.38;0.57;;;;;;;24.64;40.18;97893.47;5091252;28;20342;-63
2021/03/15 03:20:20;;;;;;;2.80;0.77;;;;;;;24.64;39.82;97885.44;5090883;28;20696;-63
2021/03/15 03:22:50;;;;;;;2.15;0.82;;;;;;;24.63;39.96;97886.47;5090739;28;20692;-63
2021/03/15 03:25:17;;;;;;;1.10;0.68;;;;;;;24.54;39.83;97887.56;5091562;28;20222;-62
2021/03/15 03:27:53;;;;;;;3.22;0.80;;;;;;;24.57;40.06;97884.56;5091099;28;20271;-63
2021/03/15 03:30:21;;;;;;;4.18;0.68;;;;;;;24.60;40.50;97884.19;5091866;28;20293;-61
2021/03/15 03:32:49;;;;;;;1.63;0.65;;;;;;;24.58;40.09;97882.69;5092081;28;20228;-63
2021/03/15 03:35:16;;;;;;;2.55;0.68;;;;;;;24.50;40.32;97875.59;5091184;28;20336;-63
2021/03/15 03:37:42;;;;;;;2.22;0.75;;;;;;;24.53;39.65;97867.19;5091200;28;20221;-64
2021/03/15 03:40:09;;;;;;;2.13;0.70;;;;;;;24.53;39.99;97870.72;5091843;28;20236;-63
2021/03/15 03:42:35;;;;;;;2.03;0.50;;;;;;;24.61;40.32;97866.28;5091316;28;20675;-62
2021/03/15 03:45:04;;;;;;;1.77;0.70;;;;;;;24.56;40.54;97865.03;5091059;28;20408;-62
2021/03/15 03:47:30;;;;;;;2.05;0.55;;;;;;;24.55;40.55;97868.69;5090627;28;20229;-63
2021/03/15 03:49:57;;;;;;;0.63;0.60;;;;;;;24.55;39.49;97867.88;5091314;28;20205;-63
2021/03/15 03:52:27;;;;;;;1.38;0.60;;;;;;;24.44;40.58;97865.66;5093033;28;20292;-62
2021/03/15 03:54:57;;;;;;;0.75;0.43;;;;;;;24.43;40.01;97866.66;5094142;28;20690;-62
2021/03/15 03:57:30;;;;;;;0.95;0.60;;;;;;;24.45;40.18;97861.94;5094246;28;20218;-63
2021/03/15 04:00:00;;;;;;;2.35;0.70;;;;;;;24.47;39.96;97874.13;5094544;28;20534;-62
2021/03/15 04:02:28;;;;;;;1.20;0.70;;;;;;;24.43;40.21;97870.19;5094165;28;20347;-61
2021/03/15 04:04:59;;;;;;;2.22;0.45;;;;;;;24.42;39.64;97873.03;5094020;28;20316;-62
2021/03/15 04:07:27;;;;;;;1.70;0.60;;;;;;;24.39;39.75;97872.38;5093901;28;20226;-60
2021/03/15 04:10:01;;;;;;;1.67;0.50;;;;;;;24.41;39.96;97871.38;5094096;28;20198;-62
2021/03/15 04:12:28;;;;;;;1.73;0.60;;;;;;;24.41;40.06;97868.69;5094491;28;20197;-62
2021/03/15 04:14:56;;;;;;;1.35;0.52;;;;;;;24.43;39.54;97864.84;5093944;28;20252;-62
2021/03/15 04:17:26;;;;;;;3.05;0.95;;;;;;;24.45;39.56;97868.16;5093914;28;20318;-62
2021/03/15 04:19:57;;;;;;;0.93;0.50;;;;;;;24.36;40.04;97864.75;5094246;28;20235;-62
2021/03/15 04:22:27;;;;;;;2.22;0.60;;;;;;;24.41;40.14;97861.50;5093704;28;20263;-59
2021/03/15 04:24:55;;;;;;;3.58;0.60;;;;;;;24.33;40.67;97865.13;5093460;28;20312;-62
2021/03/15 04:27:24;;;;;;;0.70;0.52;;;;;;;24.35;40.39;97856.94;5093531;28;20222;-62
2021/03/15 04:29:51;;;;;;;1.55;0.73;;;;;;;24.36;39.58;97843.38;5093805;28;20239;-62
2021/03/15 04:32:18;;;;;;;1.35;0.70;;;;;;;24.29;40.41;97849.66;5093899;28;20296;-62
2021/03/15 04:34:45;;;;;;;1.98;0.40;;;;;;;24.31;39.55;97839.59;5093465;28;20234;-59
2021/03/15 04:37:13;;;;;;;0.70;0.60;;;;;;;24.24;40.47;97831.50;5093113;28;20788;-62
2021/03/15 04:39:39;;;;;;;1.27;0.60;;;;;;;24.29;40.67;97834.44;5093544;28;20288;-62
2021/03/15 04:42:07;;;;;;;1.90;0.80;;;;;;;24.58;39.41;97832.78;5093822;28;20308;-62
2021/03/15 04:44:34;;;;;;;1.88;0.63;;;;;;;24.71;39.41;97821.38;5093193;28;20241;-62
2021/03/15 04:47:01;;;;;;;0.95;0.60;;;;;;;24.66;39.03;97816.59;5093455;28;20253;-61
2021/03/15 04:49:28;;;;;;;0.70;0.60;;;;;;;24.69;39.10;97815.41;5093636;28;20274;-61
2021/03/15 04:51:55;;;;;;;1.50;0.60;;;;;;;24.70;40.02;97817.06;5093378;28;20359;-61
2021/03/15 04:54:23;;;;;;;1.08;0.40;;;;;;;24.72;38.88;97805.16;5093867;28;20288;-61
2021/03/15 04:56:50;;;;;;;1.05;0.65;;;;;;;24.72;39.43;97807.00;5093527;28;20316;-62
2021/03/15 04:59:19;;;;;;;0.70;0.60;;;;;;;24.70;39.02;97806.38;5094211;28;20384;-63
2021/03/15 05:01:46;;;;;;;1.17;0.63;;;;;;;24.75;38.96;97799.41;5093910;28;20598;-62
2021/03/15 05:04:14;;;;;;;2.08;0.50;;;;;;;24.74;39.00;97803.09;5094587;28;20236;-62
2021/03/15 05:06:43;;;;;;;1.80;0.60;;;;;;;24.73;39.43;97801.47;5093673;28;20590;-61
2021/03/15 05:09:12;;;;;;;2.40;0.60;;;;;;;24.67;39.15;97798.72;5093748;28;20289;-62
2021/03/15 05:11:41;;;;;;;1.70;0.60;;;;;;;24.74;39.02;97796.94;5093510;28;20213;-62
2021/03/15 05:14:08;;;;;;;1.00;0.50;;;;;;;24.75;38.92;97798.59;5093061;28;20241;-62
2021/03/15 05:16:36;;;;;;;1.10;0.55;;;;;;;24.79;38.88;97793.69;5092925;28;20309;-62
2021/03/15 05:19:03;;;;;;;0.73;0.43;;;;;;;24.82;39.74;97793.31;5092749;28;20257;-61
2021/03/15 05:21:32;;;;;;;1.02;0.50;;;;;;;24.78;39.21;97782.19;5093666;28;20295;-62
2021/03/15 05:23:59;;;;;;;1.10;0.50;;;;;;;24.82;39.14;97785.31;5093269;28;20237;-60
2021/03/15 05:26:26;;;;;;;1.02;0.60;;;;;;;24.78;39.36;97784.00;5093023;28;20257;-60
2021/03/15 05:28:53;;;;;;;2.38;0.50;;;;;;;24.75;39.44;97777.22;5092849;28;20301;-62
2021/03/15 05:31:21;;;;;;;1.65;0.60;;;;;;;24.78;39.66;97771.50;5093242;28;20289;-63
2021/03/15 05:33:48;;;;;;;1.40;0.50;;;;;;;24.88;39.68;97773.81;5092773;28;20638;-62
2021/03/15 05:36:16;;;;;;;1.35;0.50;;;;;;;24.79;39.44;97767.78;5092624;28;20330;-61
2021/03/15 05:38:43;;;;;;;0.85;0.50;;;;;;;24.78;38.98;97766.16;5092558;28;20296;-61
2021/03/15 05:41:12;;;;;;;0.55;0.40;;;;;;;24.82;39.44;97767.41;5092456;28;20238;-63
2021/03/15 05:43:58;;;;;;;0.40;0.30;;;;;;;24.82;39.05;97758.56;5092028;28;20217;-62
2021/03/15 05:46:55;;;;;;;1.92;0.60;;;;;;;24.83;39.55;97758.38;5092521;28;20612;-63
2021/03/15 05:50:12;;;;;;;0.82;0.50;;;;;;;24.85;39.58;97750.16;5092600;28;20214;-62
2021/03/15 05:52:47;;;;;;;1.25;0.57;;;;;;;24.91;38.95;97744.88;5092896;28;20276;-61
2021/03/15 05:55:34;;;;;;;0.88;0.50;;;;;;;24.81;38.72;97733.66;5092570;28;20272;-66
2021/03/15 05:58:37;;;;;;;0.75;0.50;;;;;;;24.81;38.52;97728.31;5092014;28;20380;-62
2021/03/15 06:01:20;;;;;;;1.20;0.40;;;;;;;24.92;38.72;97730.47;5092583;28;20224;-63
2021/03/15 06:04:22;;;;;;;1.40;0.47;;;;;;;24.82;39.27;97721.97;5093635;28;20296;-61
2021/03/15 06:06:49;;;;;;;0.75;0.50;;;;;;;24.81;39.01;97714.94;5092340;28;20395;-62
2021/03/15 06:09:20;;;;;;;2.30;0.50;;;;;;;24.84;38.84;97711.06;5091725;28;20205;-64
2021/03/15 06:11:50;;;;;;;0.77;0.40;;;;;;;24.76;39.10;97704.00;5092111;28;20187;-64
2021/03/15 06:14:17;;;;;;;1.08;0.50;;;;;;;24.68;38.94;97712.16;5091766;28;20270;-61
2021/03/15 06:16:44;;;;;;;4.25;1.00;;;;;;;25.05;38.61;97710.22;5106498;28;20540;-62
2021/03/15 06:19:12;;;;;;;4.55;1.05;;;;;;;25.23;38.91;97709.69;5111658;28;20262;-58
2021/03/15 06:21:40;;;;;;;4.47;0.98;;;;;;;25.41;38.78;97702.00;5111664;28;20572;-62
2021/03/15 06:24:07;;;;;;;5.50;0.95;;;;;;;25.43;38.58;97699.97;5111732;28;20201;-62
2021/03/15 06:26:34;;;;;;;4.47;1.13;;;;;;;25.42;38.18;97703.66;5111574;28;20301;-62
2021/03/15 06:29:00;;;;;;;6.65;0.95;;;;;;;25.39;39.58;97688.00;5111418;28;20332;-60
2021/03/15 06:31:30;;;;;;;4.72;0.80;;;;;;;25.25;39.11;97687.09;5111580;28;20296;-63
2021/03/15 06:33:58;;;;;;;4.55;0.93;;;;;;;25.16;39.25;97687.44;5112300;28;20284;-61
2021/03/15 06:36:25;;;;;;;7.30;1.13;;;;;;;25.19;39.26;97679.03;5111871;28;20221;-62
2021/03/15 06:38:52;;;;;;;4.78;1.15;;;;;;;25.33;39.32;97678.13;5111419;28;20278;-62
2021/03/15 06:41:20;;;;;;;5.47;0.70;;;;;;;25.48;38.95;97670.78;5112029;28;20644;-61
2021/03/15 06:43:47;;;;;;;3.03;0.95;;;;;;;25.30;38.52;97678.50;5111445;28;20514;-60
2021/03/15 06:46:15;;;;;;;5.00;0.90;;;;;;;25.29;38.35;97672.31;5111097;28;20231;-58
2021/03/15 06:48:42;;;;;;;4.45;1.02;;;;;;;25.44;38.90;97669.50;5111166;28;20611;-61
2021/03/15 06:51:09;;;;;;;2.70;0.85;;;;;;;25.41;38.86;97669.91;5111084;28;20296;-60
2021/03/15 06:53:40;;;;;;;5.43;1.10;;;;;;;25.12;39.25;97658.41;5111602;28;20251;-61
2021/03/15 06:56:14;;;;;;;4.88;0.95;;;;;;;25.32;38.95;97668.44;5111920;28;20252;-57
2021/03/15 06:58:50;;;;;;;6.15;1.52;;;;;;;25.55;39.23;97661.97;5111954;28;20233;-59
2021/03/15 07:01:18;;;;;;;7.88;1.52;;;;;;;25.47;39.79;97653.06;5111706;28;20283;-58
2021/03/15 07:03:46;;;;;;;10.38;1.38;;;;;;;25.39;39.62;97650.53;5111248;28;20229;-59
2021/03/15 07:06:15;;;;;;;4.03;1.00;;;;;;;25.42;39.41;97657.38;5111217;28;20313;-59
2021/03/15 07:08:41;;;;;;;5.65;1.25;;;;;;;25.58;39.47;97653.50;5111603;28;20221;-59
2021/03/15 07:11:18;;;;;;;7.15;1.10;;;;;;;25.58;39.18;97653.50;5111467;28;20616;-57
2021/03/15 07:13:45;;;;;;;13.85;1.08;;;;;;;25.58;39.15;97657.03;5112180;28;20217;-60
2021/03/15 07:16:23;;;;;;;3.10;0.80;;;;;;;25.62;39.67;97649.41;5111463;28;20297;-58
2021/03/15 07:18:49;;;;;;;4.05;1.00;;;;;;;25.57;39.39;97657.22;5111452;28;20206;-60
2021/03/15 07:21:30;;;;;;;6.10;0.80;;;;;;;25.62;39.43;97647.56;5111970;28;20334;-58
2021/03/15 07:23:58;;;;;;;4.20;1.15;;;;;;;25.58;38.87;97665.06;5112147;28;20201;-60
2021/03/15 07:26:26;;;;;;;5.25;0.90;;;;;;;25.65;39.24;97663.22;5112648;28;20248;-59
2021/03/15 07:28:53;;;;;;;4.30;0.95;;;;;;;25.66;39.00;97669.41;5115975;28;20197;-59
2021/03/15 07:31:28;;;;;;;2.80;1.38;;;;;;;25.60;39.40;97670.22;5117139;28;20758;-60
2021/03/15 07:34:17;;;;;;;3.53;0.88;;;;;;;25.61;38.39;97670.00;5117508;28;20209;-60
2021/03/15 07:36:53;;;;;;;8.23;1.10;;;;;;;25.63;38.31;97683.16;5116063;28;20293;-57
2021/03/15 07:39:21;;;;;;;2.05;0.90;;;;;;;25.67;38.51;97690.63;5114874;28;20224;-60
2021/03/15 07:41:49;;;;;;;6.05;0.80;;;;;;;25.71;38.83;97680.31;5114901;27;20250;-55
2021/03/15 07:44:21;;;;;;;1.77;0.60;;;;;;;25.77;38.79;97658.13;5114954;28;20213;-59
2021/03/15 07:46:48;;;;;;;1.90;0.80;;;;;;;25.71;38.54;97663.44;5114877;28;20255;-60
2021/03/15 07:49:24;;;;;;;1.98;0.50;;;;;;;25.65;39.11;97665.09;5115374;28;20683;-59
2021/03/15 07:51:53;;;;;;;7.95;1.02;;;;;;;25.62;38.43;97654.78;5115229;28;20208;-60
2021/03/15 07:54:26;;;;;;;2.55;0.60;;;;;;;25.41;39.89;97658.38;5114535;28;20216;-58
2021/03/15 07:57:17;;;;;;;13.00;0.98;;;;;;;25.57;36.92;97657.22;5114724;28;20285;-56
2021/03/15 07:59:45;;;;;;;5.03;0.70;;;;;;;25.50;38.62;97662.53;5114974;28;20186;-60
2021/03/15 08:02:15;;;;;;;5.40;1.05;;;;;;;25.26;39.33;97658.47;5114897;28;20521;-60
2021/03/15 08:04:42;;;;;;;5.28;0.90;;;;;;;25.18;38.62;97659.47;5114460;28;20531;-60
2021/03/15 08:07:11;;;;;;;4.40;0.65;;;;;;;25.18;38.62;97656.81;5114245;27;20253;-59
2021/03/15 08:09:37;;;;;;;6.65;0.63;;;;;;;25.35;37.63;97660.00;5114580;28;20221;-61
2021/03/15 08:12:07;;;;;;;1.52;0.50;;;;;;;25.47;37.62;97669.13;5114362;28;20616;-60
2021/03/15 08:14:36;;;;;;;2.92;0.85;;;;;;;25.54;37.49;97665.66;5114581;27;20640;-56
2021/03/15 08:17:03;;;;;;;6.30;0.80;;;;;;;25.46;37.54;97667.47;5114848;28;20263;-58
2021/03/15 08:19:32;;;;;;;4.15;0.60;;;;;;;25.44;37.71;97672.19;5115024;28;20242;-60
2021/03/15 08:22:03;;;;;;;8.43;0.80;;;;;;;25.54;37.30;97658.44;5114562;28;20288;-61
2021/03/15 08:24:33;;;;;;;3.75;0.60;;;;;;;25.63;38.02;97677.81;5114393;28;20189;-63
2021/03/15 08:27:02;;;;;;;2.40;0.50;;;;;;;25.71;38.29;97671.47;5114570;28;20221;-62
2021/03/15 08:29:33;;;;;;;2.80;0.60;;;;;;;25.69;37.30;97665.50;5114145;28;20205;-63
2021/03/15 08:31:59;;;;;;;10.02;0.90;;;;;;;25.62;38.80;97670.84;5113978;28;20571;-62
2021/03/15 08:34:27;;;;;;;2.42;0.70;;;;;;;25.71;38.14;97679.50;5114077;28;20206;-59
2021/03/15 08:36:55;;;;;;;5.82;0.60;;;;;;;25.65;37.90;97681.97;5113735;28;20219;-62
2021/03/15 08:39:41;;;;;;;3.88;0.50;;;;;;;25.54;38.78;97687.88;5097527;28;20295;-61
2021/03/15 08:42:27;;;;;;;2.05;0.47;;;;;;;25.48;38.11;97681.47;5092952;28;20216;-61
2021/03/15 08:44:54;;;;;;;0.85;0.50;;;;;;;25.40;37.93;97692.34;5093446;28;20248;-64
2021/03/15 08:47:50;;;;;;;4.18;0.57;;;;;;;25.43;38.76;97697.31;5093535;28;20317;-59
2021/03/15 08:50:47;;;;;;;1.77;0.40;;;;;;;25.46;38.12;97691.56;5093314;28;20205;-62
2021/03/15 08:53:51;;;;;;;3.13;0.30;;;;;;;25.42;38.89;97692.97;5030822;28;20245;-60
2021/03/15 08:56:42;;;;;;;6.70;0.85;;;;;;;25.38;38.79;97696.22;5093470;28;20226;-62
2021/03/15 08:59:10;;;;;;;2.33;0.40;;;;;;;25.36;38.31;97693.75;5093324;28;20198;-62
2021/03/15 09:01:54;;;;;;;1.30;0.40;;;;;;;25.33;38.58;97693.31;5092993;28;20201;-63
2021/03/15 09:04:32;;;;;;;5.13;0.50;;;;;;;25.18;38.93;97696.06;5093238;28;20182;-62
2021/03/15 09:06:58;;;;;;;1.17;0.50;;;;;;;25.31;39.00;97696.19;5092537;28;20238;-62
2021/03/15 09:09:26;;;;;;;4.70;0.93;;;;;;;25.27;38.95;97708.31;5093150;28;20270;-62
2021/03/15 09:11:54;;;;;;;2.60;0.60;;;;;;;25.07;39.30;97700.94;5093384;28;20208;-55
2021/03/15 09:14:37;;;;;;;13.15;0.93;;;;;;;25.05;38.94;97703.00;5093159;28;20213;-59
2021/03/15 09:17:31;;;;;;;2.28;0.70;;;;;;;25.13;38.79;97710.06;5093627;28;20228;-59
2021/03/15 09:19:58;;;;;;;1.70;0.40;;;;;;;25.17;39.42;97707.81;5085385;28;20634;-60
2021/03/15 09:22:25;;;;;;;5.40;0.77;;;;;;;25.11;39.53;97712.94;5092512;28;20645;-64
2021/03/15 09:24:55;;;;;;;1.02;0.60;;;;;;;25.18;39.02;97714.81;5092614;28;20206;-62
2021/03/15 09:27:26;;;;;;;3.45;0.90;;;;;;;25.06;39.44;97712.69;5092421;28;20229;-51
2021/03/15 09:29:54;;;;;;;1.73;0.32;;;;;;;24.96;39.38;97720.19;5092862;28;20187;-58
2021/03/15 09:32:27;;;;;;;1.80;0.63;;;;;;;24.81;39.82;97722.16;5092989;28;20213;-61
2021/03/15 09:34:54;;;;;;;4.72;0.60;;;;;;;24.79;40.07;97722.34;5093340;28;20191;-63
2021/03/15 09:37:21;;;;;;;5.45;0.50;;;;;;;24.42;40.50;97721.56;5093029;28;20229;-60
2021/03/15 09:39:48;;;;;;;3.60;0.40;;;;;;;24.44;40.33;97716.03;5093126;28;20210;-65
2021/03/15 09:42:14;;;;;;;10.05;0.90;;;;;;;24.41;40.74;97717.22;5092189;28;20247;-61
2021/03/15 09:44:42;;;;;;;5.65;0.93;;;;;;;24.25;40.44;97721.00;5104356;28;20213;-62
2021/03/15 09:47:12;;;;;;;2.33;0.60;;;;;;;24.29;40.23;97724.09;5112600;28;20235;-61
2021/03/15 09:49:40;;;;;;;3.70;0.80;;;;;;;24.37;40.68;97722.13;5111946;28;20197;-61
2021/03/15 09:52:14;;;;;;;3.50;0.60;;;;;;;24.28;40.83;97717.09;5113015;28;20217;-61
2021/03/15 09:54:42;;;;;;;6.80;0.60;;;;;;;24.37;41.23;97714.13;5113469;28;20692;-61
2021/03/15 09:57:10;;;;;;;7.78;0.93;;;;;;;24.27;41.23;97715.47;5113582;28;20245;-62
2021/03/15 09:59:36;;;;;;;4.53;0.75;;;;;;;24.30;41.43;97721.25;5113810;28;20201;-63
2021/03/15 10:02:03;;;;;;;5.93;0.73;;;;;;;24.26;41.53;97714.63;5112523;28;20702;-62
2021/03/15 10:04:34;;;;;;;2.85;0.50;;;;;;;24.22;40.52;97713.34;5112874;28;20209;-60
2021/03/15 10:07:02;;;;;;;6.40;0.80;;;;;;;24.24;41.38;97722.00;5113210;27;20229;-62
2021/03/15 10:09:29;;;;;;;4.10;0.70;;;;;;;24.25;40.34;97723.66;5112858;28;20651;-63
2021/03/15 10:11:56;;;;;;;3.42;0.80;;;;;;;24.20;40.28;97718.06;5112504;28;20635;-63
2021/03/15 10:14:24;;;;;;;2.83;0.50;;;;;;;24.23;40.66;97725.69;5111907;27;20201;-63
2021/03/15 10:16:58;;;;;;;4.40;0.60;;;;;;;24.23;40.57;97728.38;5111819;28;20217;-62
2021/03/15 10:19:28;;;;;;;3.40;0.52;;;;;;;24.15;41.33;97723.16;5111580;28;20201;-61
2021/03/15 10:21:55;;;;;;;1.45;0.40;;;;;;;24.11;40.75;97730.69;5112645;28;20278;-61
2021/03/15 10:24:32;;;;;;;2.92;0.70;;;;;;;24.12;41.35;97723.53;5112207;28;20262;-61
2021/03/15 10:27:00;;;;;;;1.95;0.60;;;;;;;24.08;41.23;97732.91;5112135;28;20288;-61
2021/03/15 10:29:27;;;;;;;4.43;0.63;;;;;;;24.09;41.40;97739.91;5112494;28;20785;-60
2021/03/15 10:31:53;;;;;;;1.83;0.70;;;;;;;24.13;40.48;97746.53;5112403;28;20201;-62
2021/03/15 10:34:22;;;;;;;1.27;0.40;;;;;;;24.04;41.16;97753.81;5112483;28;20540;-62
2021/03/15 10:36:51;;;;;;;3.13;0.50;;;;;;;24.00;40.40;97750.69;5112048;28;20722;-62
2021/03/15 10:39:20;;;;;;;1.38;0.52;;;;;;;24.00;41.42;97748.03;5112106;28;20209;-62
2021/03/15 10:41:47;;;;;;;2.88;0.60;;;;;;;23.99;40.63;97753.56;5112056;28;20228;-61
2021/03/15 10:44:17;;;;;;;0.73;0.40;;;;;;;24.00;41.16;97749.88;5111785;28;20217;-62
2021/03/15 10:46:51;;;;;;;2.15;0.65;;;;;;;23.91;40.93;97749.13;5111588;27;20231;-64
2021/03/15 10:49:23;;;;;;;7.80;0.70;;;;;;;23.94;41.46;97751.44;5112001;28;20208;-63
2021/03/15 10:51:53;;;;;;;5.65;0.80;;;;;;;24.07;41.89;97757.97;5111419;28;20224;-63
2021/03/15 10:54:30;;;;;;;7.78;0.93;;;;;;;23.98;41.21;97760.75;5111517;28;20201;-62
2021/03/15 10:57:15;;;;;;;4.70;0.70;;;;;;;24.16;40.79;97759.50;5111379;28;20249;-60
2021/03/15 10:59:42;;;;;;;3.20;0.55;;;;;;;24.22;41.17;97758.75;5111160;28;20200;-61
2021/03/15 11:02:09;;;;;;;4.30;0.60;;;;;;;24.17;41.94;97759.31;5115095;28;20205;-61
2021/03/15 11:04:36;;;;;;;1.50;0.55;;;;;;;24.19;41.73;97751.94;5115842;28;20239;-61
2021/03/15 11:07:36;;;;;;;5.50;0.40;;;;;;;24.19;40.67;97767.13;5115057;28;20225;-61
2021/03/15 11:10:06;;;;;;;5.32;0.45;;;;;;;24.22;41.18;97764.09;5052228;28;20195;-61
2021/03/15 11:12:35;;;;;;;8.77;0.60;;;;;;;24.12;41.50;97772.41;5103412;28;20197;-60
2021/03/15 11:15:13;;;;;;;1.48;0.45;;;;;;;24.18;41.68;97770.81;5115773;28;20604;-62
2021/03/15 11:17:41;;;;;;;7.65;0.50;;;;;;;24.32;41.48;97775.31;5115204;28;20730;-63
2021/03/15 11:20:11;;;;;;;3.25;0.63;;;;;;;24.42;40.59;97771.50;5116291;28;20213;-63
2021/03/15 11:22:51;;;;;;;3.70;0.85;;;;;;;24.39;40.97;97778.03;5115938;28;20201;-61
2021/03/15 11:25:19;;;;;;;5.78;0.60;;;;;;;24.44;40.29;97777.47;5115260;28;20197;-62
2021/03/15 11:27:50;;;;;;;7.03;0.60;;;;;;;24.50;40.91;97782.09;5114854;28;20221;-63
2021/03/15 11:30:23;;;;;;;5.30;0.80;;;;;;;24.47;40.54;97783.28;5114907;28;20652;-62
2021/03/15 11:32:56;;;;;;;7.40;1.25;;;;;;;24.55;42.62;97785.03;5114800;28;20216;-62
2021/03/15 11:35:23;;;;;;;2.78;0.60;;;;;;;24.56;41.74;97795.53;5114783;28;20221;-61
2021/03/15 11:37:50;;;;;;;7.45;0.70;;;;;;;24.81;40.91;97792.47;5114889;28;20232;-60
2021/03/15 11:40:33;;;;;;;4.22;0.63;;;;;;;24.95;40.57;97798.78;5114854;28;20247;-62
2021/03/15 11:43:00;;;;;;;4.95;0.50;;;;;;;24.82;40.38;97801.34;5114988;28;20272;-61
2021/03/15 11:45:28;;;;;;;3.72;0.80;;;;;;;24.91;39.87;97789.47;5114458;28;20213;-60
2021/03/15 11:47:55;;;;;;;2.30;0.57;;;;;;;24.79;40.36;97799.03;5114576;28;20218;-61
2021/03/15 11:50:22;;;;;;;3.05;0.60;;;;;;;24.74;41.07;97800.44;5114730;28;20254;-60